createdAt,value
2018-09-18T00:01:14.438Z,9.10
2018-09-18T00:03:43.213Z,9.10
2018-09-18T00:06:12.370Z,9.00
2018-09-18T00:08:40.914Z,9.10
2018-09-18T00:11:09.740Z,9.10
2018-09-18T00:13:38.306Z,9.00
2018-09-18T00:16:06.924Z,9.00
2018-09-18T00:18:35.484Z,8.90
2018-09-18T00:21:04.152Z,9.00
2018-09-18T00:23:33.347Z,9.00
2018-09-18T00:26:02.465Z,8.90
2018-09-18T00:28:31.019Z,8.90
2018-09-18T00:30:59.639Z,8.90
2018-09-18T00:33:28.294Z,8.90
2018-09-18T00:35:56.870Z,8.80
2018-09-18T00:38:25.772Z,8.90
2018-09-18T00:40:54.234Z,8.80
2018-09-18T00:43:22.684Z,8.80
2018-09-18T00:45:51.442Z,8.80
2018-09-18T00:48:20.355Z,8.80
2018-09-18T00:50:48.961Z,8.70
2018-09-18T00:53:17.711Z,8.70
2018-09-18T00:55:46.787Z,8.70
2018-09-18T00:58:15.658Z,8.70
2018-09-18T01:00:44.888Z,8.70
2018-09-18T01:03:13.400Z,8.70
2018-09-18T01:05:42.701Z,8.60
2018-09-18T01:08:11.260Z,8.60
2018-09-18T01:10:39.825Z,8.60
2018-09-18T01:13:08.449Z,8.50
2018-09-18T01:15:37.097Z,8.50
2018-09-18T01:18:05.798Z,8.40
2018-09-18T01:20:34.285Z,8.40
2018-09-18T01:23:02.864Z,8.50
2018-09-18T01:25:31.370Z,8.50
2018-09-18T01:28:00.001Z,8.40
2018-09-18T01:30:28.636Z,8.40
2018-09-18T01:32:57.260Z,8.40
2018-09-18T01:35:26.126Z,8.30
2018-09-18T01:37:54.589Z,8.30
2018-09-18T01:40:23.313Z,8.30
2018-09-18T01:42:52.028Z,8.30
2018-09-18T01:45:20.624Z,8.30
2018-09-18T01:47:49.190Z,8.30
2018-09-18T01:50:17.737Z,8.20
2018-09-18T01:52:46.409Z,8.20
2018-09-18T01:55:15.232Z,8.20
2018-09-18T01:57:44.001Z,8.10
2018-09-18T02:00:12.728Z,8.10
2018-09-18T02:02:41.383Z,8.10
2018-09-18T02:05:09.953Z,8.10
2018-09-18T02:07:38.692Z,8.10
2018-09-18T02:10:07.412Z,8.00
2018-09-18T02:12:35.901Z,8.10
2018-09-18T02:15:04.744Z,8.10
2018-09-18T02:17:33.276Z,8.10
2018-09-18T02:20:02.043Z,8.10
2018-09-18T02:22:30.658Z,8.10
2018-09-18T02:24:59.196Z,8.10
2018-09-18T02:27:27.691Z,8.10
2018-09-18T02:29:57.119Z,8.10
2018-09-18T02:32:25.685Z,8.10
2018-09-18T02:34:54.447Z,8.10
2018-09-18T02:37:23.542Z,8.00
2018-09-18T02:39:52.193Z,8.10
2018-09-18T02:42:21.632Z,8.00
2018-09-18T02:44:50.436Z,7.90
2018-09-18T02:47:19.048Z,7.90
2018-09-18T02:49:48.344Z,7.90
2018-09-18T02:52:17.235Z,7.90
2018-09-18T02:54:45.921Z,7.90
2018-09-18T02:57:14.829Z,7.90
2018-09-18T02:59:43.664Z,7.90
2018-09-18T03:02:12.682Z,7.80
2018-09-18T03:04:41.246Z,7.80
2018-09-18T03:07:09.817Z,7.90
2018-09-18T03:09:38.303Z,7.80
2018-09-18T03:12:07.196Z,7.80
2018-09-18T03:14:35.817Z,7.80
2018-09-18T03:17:04.643Z,7.80
2018-09-18T03:19:33.293Z,7.80
2018-09-18T03:22:01.892Z,7.70
2018-09-18T03:24:30.726Z,7.70
2018-09-18T03:26:59.775Z,7.70
2018-09-18T03:29:28.537Z,7.60
2018-09-18T03:31:57.178Z,7.60
2018-09-18T03:34:26.006Z,7.60
2018-09-18T03:36:54.516Z,7.60
2018-09-18T03:39:23.098Z,7.60
2018-09-18T03:41:51.693Z,7.60
2018-09-18T03:44:20.347Z,7.60
2018-09-18T03:46:48.939Z,7.60
2018-09-18T03:49:17.426Z,7.60
2018-09-18T03:51:46.052Z,7.60
2018-09-18T03:54:14.603Z,7.60
2018-09-18T03:56:43.185Z,7.60
2018-09-18T03:59:11.741Z,7.60
2018-09-18T04:01:40.272Z,7.60
2018-09-18T04:04:09.675Z,7.60
2018-09-18T04:06:38.873Z,7.50
2018-09-18T04:09:09.863Z,7.60
2018-09-18T04:11:40.632Z,7.50
2018-09-18T04:14:09.784Z,7.50
2018-09-18T04:16:38.428Z,7.50
2018-09-18T04:19:06.957Z,7.50
2018-09-18T04:21:40.720Z,7.50
2018-09-18T04:24:10.015Z,7.50
2018-09-18T04:26:40.166Z,7.50
2018-09-18T04:29:09.512Z,7.50
2018-09-18T04:31:39.657Z,7.50
2018-09-18T04:34:08.225Z,7.50
2018-09-18T04:36:37.081Z,7.50
2018-09-18T04:39:09.977Z,7.50
2018-09-18T04:41:38.559Z,7.50
2018-09-18T04:44:07.583Z,7.40
2018-09-18T04:46:36.759Z,7.40
2018-09-18T04:49:05.981Z,7.40
2018-09-18T04:51:34.509Z,7.40
2018-09-18T04:54:03.300Z,7.40
2018-09-18T04:56:31.953Z,7.40
2018-09-18T04:59:00.698Z,7.40
2018-09-18T05:01:29.995Z,7.40
2018-09-18T05:03:59.401Z,7.30
2018-09-18T05:06:28.572Z,7.30
2018-09-18T05:08:57.075Z,7.30
2018-09-18T05:11:25.653Z,7.40
2018-09-18T05:13:55.086Z,7.30
2018-09-18T05:16:23.664Z,7.40
2018-09-18T05:18:52.325Z,7.40
2018-09-18T05:21:21.146Z,7.40
2018-09-18T05:23:50.152Z,7.40
2018-09-18T05:26:19.469Z,7.40
2018-09-18T05:28:48.180Z,7.50
2018-09-18T05:31:16.836Z,7.50
2018-09-18T05:33:45.828Z,7.60
2018-09-18T05:36:14.945Z,7.60
2018-09-18T05:38:43.735Z,7.60
2018-09-18T05:41:12.349Z,7.60
2018-09-18T05:43:41.096Z,7.70
2018-09-18T05:46:09.900Z,7.70
2018-09-18T05:48:38.420Z,7.70
2018-09-18T05:51:06.919Z,7.80
2018-09-18T05:53:35.506Z,7.80
2018-09-18T05:56:11.165Z,7.90
2018-09-18T05:58:39.896Z,7.90
2018-09-18T06:01:09.067Z,8.00
2018-09-18T06:03:37.663Z,8.10
2018-09-18T06:06:07.221Z,8.10
2018-09-18T06:08:35.834Z,8.30
2018-09-18T06:11:04.472Z,8.30
2018-09-18T06:13:33.166Z,8.40
2018-09-18T06:16:01.832Z,8.50
2018-09-18T06:18:31.096Z,8.60
2018-09-18T06:20:59.978Z,8.70
2018-09-18T06:23:28.652Z,8.80
2018-09-18T06:25:57.837Z,8.90
2018-09-18T06:28:26.341Z,9.00
2018-09-18T06:30:54.882Z,9.10
2018-09-18T06:33:23.660Z,9.30
2018-09-18T06:35:52.866Z,9.40
2018-09-18T06:38:21.552Z,9.60
2018-09-18T06:40:51.020Z,9.70
2018-09-18T06:43:20.449Z,9.90
2018-09-18T06:45:48.944Z,10.10
2018-09-18T06:48:17.796Z,10.30
2018-09-18T06:50:46.508Z,10.40
2018-09-18T06:53:15.192Z,10.50
2018-09-18T06:55:43.791Z,10.70
2018-09-18T06:58:12.536Z,10.80
2018-09-18T07:00:41.040Z,11.00
2018-09-18T07:03:09.620Z,11.10
2018-09-18T07:05:38.248Z,11.20
2018-09-18T07:08:07.116Z,11.30
2018-09-18T07:10:35.872Z,11.40
2018-09-18T07:13:04.660Z,11.60
2018-09-18T07:15:33.317Z,11.70
2018-09-18T07:18:02.523Z,11.80
2018-09-18T07:20:31.101Z,11.90
2018-09-18T07:22:59.849Z,12.10
2018-09-18T07:25:28.430Z,12.30
2018-09-18T07:27:57.678Z,12.50
2018-09-18T07:30:26.337Z,12.60
2018-09-18T07:32:55.048Z,12.80
2018-09-18T07:35:24.694Z,12.90
2018-09-18T07:37:53.646Z,13.10
2018-09-18T07:40:22.266Z,13.40
2018-09-18T07:42:51.000Z,13.40
2018-09-18T07:45:20.196Z,13.50
2018-09-18T07:47:48.730Z,13.70
2018-09-18T07:50:17.243Z,13.80
2018-09-18T07:52:46.952Z,14.00
2018-09-18T07:55:15.530Z,14.10
2018-09-18T07:57:44.065Z,14.30
2018-09-18T08:00:12.631Z,14.40
2018-09-18T08:02:41.153Z,14.50
2018-09-18T08:05:10.029Z,14.60
2018-09-18T08:07:38.660Z,14.80
2018-09-18T08:10:07.559Z,15.00
2018-09-18T08:12:36.288Z,15.00
2018-09-18T08:15:05.099Z,15.20
2018-09-18T08:17:34.440Z,15.40
2018-09-18T08:20:03.027Z,15.50
2018-09-18T08:22:32.314Z,15.70
2018-09-18T08:25:00.873Z,15.80
2018-09-18T08:27:29.527Z,16.00
2018-09-18T08:29:58.021Z,16.20
2018-09-18T08:32:26.785Z,16.30
2018-09-18T08:34:55.580Z,16.50
2018-09-18T08:37:24.271Z,16.70
2018-09-18T08:39:53.089Z,16.90
2018-09-18T08:42:21.754Z,17.10
2018-09-18T08:44:50.351Z,17.30
2018-09-18T08:47:18.994Z,17.50
2018-09-18T08:49:47.633Z,17.60
2018-09-18T08:52:16.161Z,17.80
2018-09-18T08:54:44.786Z,18.00
2018-09-18T08:57:13.307Z,18.20
2018-09-18T08:59:41.897Z,18.40
2018-09-18T09:02:10.560Z,18.60
2018-09-18T09:04:39.101Z,18.80
2018-09-18T09:07:07.639Z,19.00
2018-09-18T09:09:36.269Z,19.10
2018-09-18T09:12:04.855Z,19.30
2018-09-18T09:14:33.515Z,19.50
2018-09-18T09:17:01.980Z,19.70
2018-09-18T09:19:31.072Z,20.00
2018-09-18T09:21:59.756Z,20.20
2018-09-18T09:24:28.840Z,20.60
2018-09-18T09:26:57.605Z,20.70
2018-09-18T09:29:26.073Z,20.90
2018-09-18T09:31:55.485Z,21.20
2018-09-18T09:34:24.820Z,21.50
2018-09-18T09:36:53.377Z,21.70
2018-09-18T09:39:22.027Z,21.80
2018-09-18T09:41:51.348Z,22.10
2018-09-18T09:44:20.408Z,22.30
2018-09-18T09:46:49.008Z,22.50
2018-09-18T09:49:18.088Z,22.80
2018-09-18T09:51:49.691Z,22.90
2018-09-18T09:54:18.286Z,23.00
2018-09-18T09:56:46.927Z,23.00
2018-09-18T09:59:15.433Z,23.10
2018-09-18T10:01:50.748Z,23.10
2018-09-18T10:04:19.300Z,23.40
2018-09-18T10:06:48.549Z,23.50
2018-09-18T10:09:17.090Z,23.60
2018-09-18T10:11:45.697Z,23.80
2018-09-18T10:14:14.391Z,23.90
2018-09-18T10:16:42.937Z,24.00
2018-09-18T10:19:11.449Z,24.20
2018-09-18T10:21:40.794Z,24.40
2018-09-18T10:24:10.091Z,24.60
2018-09-18T10:26:38.655Z,24.80
2018-09-18T10:29:07.378Z,24.90
2018-09-18T10:31:35.944Z,24.90
2018-09-18T10:34:04.823Z,25.00
2018-09-18T10:36:33.400Z,25.20
2018-09-18T10:39:02.061Z,25.50
2018-09-18T10:41:30.726Z,25.70
2018-09-18T10:43:59.282Z,26.00
2018-09-18T10:46:28.006Z,26.10
2018-09-18T10:48:57.714Z,26.30
2018-09-18T10:51:26.584Z,26.40
2018-09-18T10:53:55.568Z,26.40
2018-09-18T10:56:24.581Z,26.40
2018-09-18T10:58:53.183Z,26.40
2018-09-18T11:01:21.764Z,26.30
2018-09-18T11:03:50.355Z,26.20
2018-09-18T11:06:18.861Z,26.10
2018-09-18T11:08:47.518Z,26.00
2018-09-18T11:11:16.512Z,25.80
2018-09-18T11:13:44.987Z,25.60
2018-09-18T11:16:14.085Z,25.40
2018-09-18T11:18:42.738Z,25.30
2018-09-18T11:21:12.477Z,25.20
2018-09-18T11:23:41.203Z,25.30
2018-09-18T11:26:09.866Z,25.30
2018-09-18T11:28:38.374Z,25.30
2018-09-18T11:31:06.960Z,25.40
2018-09-18T11:33:35.451Z,25.50
2018-09-18T11:36:03.990Z,25.80
2018-09-18T11:38:32.824Z,26.00
2018-09-18T11:41:01.617Z,26.10
2018-09-18T11:43:30.148Z,26.20
2018-09-18T11:45:59.137Z,26.30
2018-09-18T11:48:27.500Z,26.30
2018-09-18T11:50:56.161Z,26.40
2018-09-18T11:53:24.695Z,26.50
2018-09-18T11:55:53.280Z,26.50
2018-09-18T11:58:21.814Z,26.50
2018-09-18T12:00:51.184Z,26.60
2018-09-18T12:03:20.456Z,26.80
2018-09-18T12:05:49.614Z,26.90
2018-09-18T12:08:18.305Z,26.90
2018-09-18T12:10:46.839Z,26.80
2018-09-18T12:13:16.193Z,27.00
2018-09-18T12:15:45.420Z,27.10
2018-09-18T12:18:13.995Z,27.30
2018-09-18T12:20:42.615Z,27.30
2018-09-18T12:23:11.330Z,27.10
2018-09-18T12:25:39.962Z,27.30
2018-09-18T12:28:09.265Z,27.40
2018-09-18T12:30:37.756Z,27.30
2018-09-18T12:33:06.392Z,27.50
2018-09-18T12:35:35.518Z,27.60
2018-09-18T12:38:03.920Z,27.80
2018-09-18T12:40:32.590Z,28.10
2018-09-18T12:43:01.716Z,28.20
2018-09-18T12:45:30.330Z,28.40
2018-09-18T12:47:59.135Z,28.30
2018-09-18T12:50:27.842Z,28.50
2018-09-18T12:52:56.589Z,28.60
2018-09-18T12:55:25.160Z,28.70
2018-09-18T12:57:53.796Z,28.60
2018-09-18T13:00:22.497Z,28.70
2018-09-18T13:02:51.505Z,28.70
2018-09-18T13:05:20.216Z,28.60
2018-09-18T13:07:49.544Z,28.50
2018-09-18T13:10:18.575Z,28.30
2018-09-18T13:12:47.089Z,28.30
2018-09-18T13:15:15.646Z,28.30
2018-09-18T13:17:44.180Z,28.30
2018-09-18T13:20:12.857Z,28.20
2018-09-18T13:22:41.415Z,28.30
2018-09-18T13:25:10.117Z,28.40
2018-09-18T13:27:38.750Z,28.40
2018-09-18T13:30:07.640Z,28.30
2018-09-18T13:32:36.400Z,28.30
2018-09-18T13:35:05.825Z,28.40
2018-09-18T13:37:34.708Z,28.40
2018-09-18T13:40:03.354Z,28.30
2018-09-18T13:42:31.921Z,28.20
2018-09-18T13:45:00.511Z,28.20
2018-09-18T13:47:29.090Z,28.30
2018-09-18T13:49:57.680Z,28.30
2018-09-18T13:52:26.576Z,28.30
2018-09-18T13:54:55.180Z,28.20
2018-09-18T13:57:23.751Z,28.10
2018-09-18T13:59:52.335Z,28.00
2018-09-18T14:02:21.712Z,27.80
2018-09-18T14:04:50.900Z,27.80
2018-09-18T14:07:19.581Z,27.70
2018-09-18T14:09:49.257Z,27.90
2018-09-18T14:12:18.513Z,28.10
2018-09-18T14:14:47.249Z,28.10
2018-09-18T14:17:16.589Z,28.10
2018-09-18T14:19:45.749Z,28.10
2018-09-18T14:22:14.549Z,28.00
2018-09-18T14:24:43.452Z,28.10
2018-09-18T14:27:12.145Z,28.10
2018-09-18T14:29:40.783Z,28.30
2018-09-18T14:32:09.487Z,28.40
2018-09-18T14:34:38.518Z,28.60
2018-09-18T14:37:07.863Z,28.80
2018-09-18T14:39:37.688Z,29.10
2018-09-18T14:42:06.268Z,29.20
2018-09-18T14:44:35.580Z,29.00
2018-09-18T14:47:04.350Z,28.30
2018-09-18T14:49:32.878Z,27.50
2018-09-18T14:52:01.404Z,26.70
2018-09-18T14:54:29.986Z,26.50
2018-09-18T14:56:58.704Z,26.70
2018-09-18T14:59:27.392Z,26.70
2018-09-18T15:01:55.938Z,26.70
2018-09-18T15:04:24.751Z,26.40
2018-09-18T15:06:53.556Z,26.20
2018-09-18T15:09:22.036Z,26.20
2018-09-18T15:11:50.632Z,26.20
2018-09-18T15:14:19.233Z,26.30
2018-09-18T15:16:47.903Z,26.40
2018-09-18T15:19:16.450Z,26.50
2018-09-18T15:21:45.189Z,26.60
2018-09-18T15:24:13.891Z,26.90
2018-09-18T15:26:42.500Z,26.80
2018-09-18T15:29:11.073Z,26.70
2018-09-18T15:31:39.894Z,26.50
2018-09-18T15:34:08.844Z,26.30
2018-09-18T15:36:37.561Z,25.90
2018-09-18T15:39:07.679Z,25.50
2018-09-18T15:41:37.029Z,25.10
2018-09-18T15:44:05.658Z,24.40
2018-09-18T15:46:34.771Z,23.70
2018-09-18T15:49:03.508Z,23.30
2018-09-18T15:51:32.381Z,23.00
2018-09-18T15:54:01.490Z,22.80
2018-09-18T15:56:31.175Z,22.60
2018-09-18T15:59:00.004Z,22.50
2018-09-18T16:01:28.801Z,22.40
2018-09-18T16:03:57.475Z,22.30
2018-09-18T16:06:26.488Z,22.20
2018-09-18T16:08:55.518Z,22.20
2018-09-18T16:11:24.511Z,22.20
2018-09-18T16:13:53.392Z,22.20
2018-09-18T16:16:22.808Z,22.20
2018-09-18T16:31:51.375Z,22.10
2018-09-18T16:34:21.176Z,22.10
2018-09-18T16:36:50.214Z,21.30
2018-09-18T16:39:19.261Z,21.20
2018-09-18T16:41:48.412Z,21.10
2018-09-18T16:44:17.899Z,20.90
2018-09-18T16:46:46.883Z,20.80
2018-09-18T16:49:15.477Z,20.70
2018-09-18T16:51:45.109Z,20.90
2018-09-18T16:54:14.439Z,20.90
2018-09-18T16:56:43.661Z,20.70
2018-09-18T16:59:12.596Z,20.30
2018-09-18T17:01:41.858Z,19.90
2018-09-18T17:04:10.589Z,19.70
2018-09-18T17:06:39.605Z,19.40
2018-09-18T17:09:09.459Z,19.10
2018-09-18T17:11:38.671Z,19.10
2018-09-18T17:14:07.876Z,19.00
2018-09-18T17:16:37.499Z,19.10
2018-09-18T17:19:06.685Z,19.10
2018-09-18T17:21:36.004Z,19.00
2018-09-18T17:24:04.747Z,18.90
2018-09-18T17:26:34.601Z,18.70
2018-09-18T17:29:03.688Z,18.50
2018-09-18T17:31:33.000Z,18.50
2018-09-18T17:34:02.509Z,18.60
2018-09-18T17:36:31.495Z,18.60
2018-09-18T17:39:00.526Z,18.40
2018-09-18T17:41:29.887Z,18.30
2018-09-18T17:43:59.730Z,18.30
2018-09-18T17:46:29.230Z,18.20
2018-09-18T17:48:58.662Z,18.20
2018-09-18T17:51:27.608Z,18.10
2018-09-18T17:53:56.502Z,18.00
2018-09-18T17:56:26.410Z,18.00
2018-09-18T17:58:55.821Z,18.00
2018-09-18T18:01:24.555Z,18.10
2018-09-18T18:03:53.649Z,18.10
2018-09-18T18:06:22.941Z,18.10
2018-09-18T18:08:52.786Z,18.00
2018-09-18T18:11:21.708Z,17.80
2018-09-18T18:13:50.608Z,17.70
2018-09-18T18:16:19.734Z,17.80
2018-09-18T18:18:48.375Z,17.70
2018-09-18T18:21:17.332Z,17.60
2018-09-18T18:23:46.422Z,17.40
2018-09-18T18:26:15.670Z,17.30
2018-09-18T18:28:44.941Z,17.40
2018-09-18T18:31:13.847Z,17.40
2018-09-18T18:33:42.595Z,17.40
2018-09-18T18:36:11.577Z,17.40
2018-09-18T18:38:40.850Z,17.10
2018-09-18T18:41:09.964Z,17.10
2018-09-18T18:43:39.778Z,17.10
2018-09-18T18:46:08.899Z,17.00
2018-09-18T18:48:37.786Z,16.90
2018-09-18T18:51:07.101Z,16.90
2018-09-18T18:53:36.827Z,16.80
2018-09-18T18:56:05.646Z,16.80
2018-09-18T18:58:34.512Z,16.70
2018-09-18T19:01:03.934Z,16.60
2018-09-18T19:03:32.625Z,16.60
2018-09-18T19:06:01.446Z,16.60
2018-09-18T19:08:30.246Z,16.50
2018-09-18T19:10:59.245Z,16.50
2018-09-18T19:13:28.042Z,16.40
2018-09-18T19:15:56.861Z,16.30
2018-09-18T19:18:25.538Z,16.30
2018-09-18T19:20:54.375Z,16.30
2018-09-18T19:23:23.361Z,16.30
2018-09-18T19:25:52.713Z,16.20
2018-09-18T19:28:21.322Z,16.10
2018-09-18T19:30:50.768Z,16.00
2018-09-18T19:33:19.520Z,15.90
2018-09-18T19:35:48.119Z,15.80
2018-09-18T19:38:16.901Z,15.70
2018-09-18T19:40:45.792Z,15.80
2018-09-18T19:43:14.730Z,15.60
2018-09-18T19:45:43.300Z,15.60
2018-09-18T19:48:12.011Z,15.50
2018-09-18T19:50:40.950Z,15.40
2018-09-18T19:53:09.624Z,15.30
2018-09-18T19:55:38.258Z,15.30
2018-09-18T19:58:07.060Z,15.40
2018-09-18T20:00:35.754Z,15.30
2018-09-18T20:03:04.629Z,15.10
2018-09-18T20:05:33.502Z,15.10
2018-09-18T20:08:02.197Z,15.10
2018-09-18T20:10:30.839Z,15.00
2018-09-18T20:12:59.501Z,14.90
2018-09-18T20:15:28.864Z,14.80
2018-09-18T20:17:58.132Z,14.80
2018-09-18T20:20:27.782Z,14.80
2018-09-18T20:22:56.971Z,14.70
2018-09-18T20:25:25.675Z,14.60
2018-09-18T20:27:54.354Z,14.50
2018-09-18T20:30:23.059Z,14.40
2018-09-18T20:32:51.664Z,14.40
2018-09-18T20:35:20.312Z,14.30
2018-09-18T20:37:50.011Z,14.30
2018-09-18T20:40:18.626Z,14.20
2018-09-18T20:42:47.264Z,14.10
2018-09-18T20:45:15.864Z,14.10
2018-09-18T20:47:44.676Z,14.10
2018-09-18T20:50:13.309Z,14.10
2018-09-18T20:52:41.899Z,14.10
2018-09-18T20:55:10.563Z,14.10
2018-09-18T20:57:39.820Z,14.00
2018-09-18T21:00:08.571Z,13.90
2018-09-18T21:02:37.241Z,14.00
2018-09-18T21:05:05.955Z,13.90
2018-09-18T21:07:34.620Z,14.10
2018-09-18T21:10:04.009Z,14.00
2018-09-18T21:12:32.560Z,13.90
2018-09-18T21:15:01.273Z,13.80
2018-09-18T21:17:29.816Z,13.70
2018-09-18T21:19:59.410Z,13.70
2018-09-18T21:22:27.936Z,13.60
2018-09-18T21:25:07.918Z,13.50
2018-09-18T21:27:36.533Z,13.50
2018-09-18T21:30:05.315Z,13.30
2018-09-18T21:32:34.008Z,13.30
2018-09-18T21:35:02.600Z,13.30
2018-09-18T21:37:31.207Z,13.30
2018-09-18T21:39:59.950Z,13.30
2018-09-18T21:42:28.631Z,13.30
2018-09-18T21:44:57.203Z,13.30
2018-09-18T21:47:25.872Z,13.20
2018-09-18T21:49:54.705Z,13.10
2018-09-18T21:52:23.432Z,13.10
2018-09-18T21:54:52.714Z,13.10
2018-09-18T21:57:21.621Z,13.10
2018-09-18T21:59:50.386Z,13.00
2018-09-18T22:02:19.772Z,13.00
2018-09-18T22:04:48.588Z,12.90
2018-09-18T22:07:17.493Z,13.00
2018-09-18T22:09:46.059Z,12.90
2018-09-18T22:12:14.641Z,12.80
2018-09-18T22:14:43.280Z,12.80
2018-09-18T22:17:12.016Z,12.80
2018-09-18T22:19:40.744Z,12.80
2018-09-18T22:22:09.462Z,12.70
2018-09-18T22:24:38.301Z,12.70
2018-09-18T22:27:06.840Z,12.60
2018-09-18T22:29:35.378Z,12.60
2018-09-18T22:32:04.016Z,12.60
2018-09-18T22:34:32.598Z,12.60
2018-09-18T22:37:01.159Z,12.60
2018-09-18T22:39:29.914Z,12.60
2018-09-18T22:41:58.578Z,12.60
2018-09-18T22:44:27.080Z,12.50
2018-09-18T22:46:55.711Z,12.50
2018-09-18T22:49:24.541Z,12.50
2018-09-18T22:51:53.099Z,12.40
2018-09-18T22:54:21.604Z,12.40
2018-09-18T22:56:50.198Z,12.40
2018-09-18T22:59:20.180Z,12.40
2018-09-18T23:01:48.951Z,12.40
2018-09-18T23:04:17.473Z,12.40
2018-09-18T23:06:46.840Z,12.30
2018-09-18T23:09:15.320Z,12.30
2018-09-18T23:11:44.365Z,12.20
2018-09-18T23:14:13.003Z,12.20
2018-09-18T23:16:41.599Z,12.20
2018-09-18T23:19:10.749Z,12.10
2018-09-18T23:21:39.948Z,12.10
2018-09-18T23:24:09.184Z,12.10
2018-09-18T23:26:38.472Z,12.10
2018-09-18T23:29:07.661Z,12.10
2018-09-18T23:31:36.835Z,12.10
2018-09-18T23:34:05.422Z,12.00
2018-09-18T23:36:34.099Z,11.90
2018-09-18T23:39:02.821Z,11.90
2018-09-18T23:41:31.415Z,11.90
2018-09-18T23:43:59.968Z,11.90
2018-09-18T23:46:28.487Z,11.80
2018-09-18T23:48:57.040Z,11.80
2018-09-18T23:51:25.567Z,11.70
2018-09-18T23:53:54.981Z,11.70
2018-09-18T23:56:23.480Z,11.70
2018-09-18T23:58:52.143Z,11.70
